No particular awareness of the weather is required.    There are no Weather-warnings


Meteo18 Weather Cam more information Meteo18 Weather Cam


Thunder radar more information blitzortung!


Rain radar more information rain snow radar


Visit our other weather sites:

Template documentation
and downloads

And another site



Weather Underground History page Text

Daily Summary for June 15, 2017 Units:  English    Metric   Both
« Previous Day
Next Day »
Daily Weekly Monthly Yearly Custom
  High: Low: Average:
Temperature: TemperatureC °F 15.8 °F 23.5 °F
Dew Point: DewpointC °F 11.5 °F 16.7 °F
Humidity: Humidity % 33 % 69 %
Wind Speed: WindSpeedKMH mph 0.0 mph 5.7 mph
Wind Gust: WindSpeedGustKMH mph - -
Wind:- - West
Pressure: PressurehPa in 1016.1 in -
Precipitation: 0.0 in    
Historical Graphs
 
 
Tabular Data for June 15, 2017
Time Temperature Dew Point Pressure Wind Wind Speed Wind Gust Humidity Rainfall Rate (Hourly)
TemperatureC °F DewpointC °F PressurehPa in Calm     Humidity % HourlyPrecipMM in
00:02 20.1 °F 18.2 °F 1016.5 in Calm     89 % 0.0 in
00:12 19.8 °F 17.8 °F 1016.5 in Calm     88 % 0.0 in
00:17 19.7 °F 17.8 °F 1016.5 in Calm     89 % 0.0 in
00:22 19.7 °F 18.0 °F 1016.8 in Calm     90 % 0.0 in
00:27 19.6 °F 17.9 °F 1016.5 in Calm     90 % 0.0 in
00:32 19.4 °F 17.7 °F 1016.8 in Calm     90 % 0.0 in
00:37 19.3 °F 17.6 °F 1016.5 in Calm     90 % 0.0 in
00:42 19.2 °F 17.5 °F 1016.8 in Calm     90 % 0.0 in
00:52 19.0 °F 17.5 °F 1016.8 in Calm     91 % 0.0 in
00:57 19.0 °F 17.5 °F 1016.8 in Calm     91 % 0.0 in
01:02 18.9 °F 17.4 °F 1016.8 in Calm     91 % 0.0 in
01:07 18.8 °F 17.5 °F 1016.8 in Calm     92 % 0.0 in
01:12 18.8 °F 17.5 °F 1016.8 in Calm     92 % 0.0 in
01:17 18.8 °F 17.5 °F 1016.8 in NNW 1.6 mph   92 % 0.0 in
01:22 18.9 °F 17.7 °F 1016.8 in Calm   1.6 mph 93 % 0.0 in
01:32 18.8 °F 17.6 °F 1016.5 in North 1.6 mph 1.6 mph 93 % 0.0 in
01:37 18.7 °F 17.4 °F 1016.5 in Calm   1.6 mph 92 % 0.0 in
01:42 18.5 °F 17.3 °F 1016.8 in Calm   1.6 mph 93 % 0.0 in
01:47 18.4 °F 17.2 °F 1016.8 in Calm   1.6 mph 93 % 0.0 in
01:52 18.3 °F 17.1 °F 1016.8 in Calm   1.6 mph 93 % 0.0 in
01:57 18.2 °F 17.0 °F 1016.8 in Calm   1.6 mph 93 % 0.0 in
02:02 18.1 °F 16.9 °F 1016.8 in Calm   1.6 mph 93 % 0.0 in
02:07 18.1 °F 17.1 °F 1016.8 in Calm     94 % 0.0 in
02:12 18.1 °F 16.9 °F 1016.8 in Calm     93 % 0.0 in
02:17 17.9 °F 16.8 °F 1016.5 in Calm     93 % 0.0 in
02:22 17.9 °F 16.9 °F 1016.5 in Calm     94 % 0.0 in
02:27 17.9 °F 16.9 °F 1016.5 in Calm     94 % 0.0 in
02:32 17.8 °F 16.8 °F 1016.5 in Calm     94 % 0.0 in
02:37 17.8 °F 16.8 °F 1016.5 in Calm     94 % 0.0 in
02:42 17.8 °F 16.8 °F 1016.5 in Calm     94 % 0.0 in
02:52 17.8 °F 16.8 °F 1016.5 in Calm     94 % 0.0 in
02:57 17.7 °F 16.7 °F 1016.5 in Calm     94 % 0.0 in
03:02 17.6 °F 16.6 °F 1016.5 in Calm     94 % 0.0 in
03:07 17.4 °F 16.4 °F 1016.5 in Calm     94 % 0.0 in
03:12 17.4 °F 16.6 °F 1016.5 in Calm     95 % 0.0 in
03:17 17.5 °F 16.7 °F 1016.5 in Calm     95 % 0.0 in
03:22 17.5 °F 16.7 °F 1016.1 in Calm     95 % 0.0 in
03:32 17.1 °F 16.1 °F 1016.1 in Calm     94 % 0.0 in
03:42 16.9 °F 16.1 °F 1016.1 in Calm     95 % 0.0 in
03:52 17.0 °F 16.2 °F 1016.5 in Calm     95 % 0.0 in
03:57 16.9 °F 16.1 °F 1016.5 in Calm     95 % 0.0 in
04:02 16.8 °F 16.0 °F 1016.5 in Calm     95 % 0.0 in
04:07 16.8 °F 16.0 °F 1016.5 in Calm     95 % 0.0 in
04:12 16.9 °F 16.3 °F 1016.5 in Calm     96 % 0.0 in
04:17 16.7 °F 15.9 °F 1016.5 in Calm     95 % 0.0 in
04:27 16.4 °F 15.6 °F 1016.5 in Calm     95 % 0.0 in
04:32 16.4 °F 15.8 °F 1016.5 in Calm     96 % 0.0 in
04:37 16.5 °F 15.9 °F 1016.5 in Calm     96 % 0.0 in
04:42 16.6 °F 16.0 °F 1016.5 in Calm     96 % 0.0 in
04:47 16.7 °F 16.1 °F 1016.5 in Calm     96 % 0.0 in
04:52 16.6 °F 16.0 °F 1016.5 in Calm     96 % 0.0 in
04:57 16.7 °F 16.1 °F 1016.5 in Calm     96 % 0.0 in
05:02 16.7 °F 16.1 °F 1016.5 in Calm     96 % 0.0 in
05:12 16.4 °F 15.6 °F 1016.5 in Calm     95 % 0.0 in
05:17 16.4 °F 15.8 °F 1016.5 in Calm     96 % 0.0 in
05:22 16.4 °F 15.8 °F 1016.5 in Calm     96 % 0.0 in
05:32 16.3 °F 15.7 °F 1016.5 in Calm     96 % 0.0 in
05:37 16.4 °F 15.8 °F 1016.5 in Calm     96 % 0.0 in
05:42 16.4 °F 15.8 °F 1016.5 in Calm     96 % 0.0 in
05:47 16.3 °F 15.5 °F 1016.5 in Calm     95 % 0.0 in
05:52 16.2 °F 15.6 °F 1016.5 in Calm     96 % 0.0 in
05:57 16.2 °F 15.6 °F 1016.5 in Calm     96 % 0.0 in
06:02 16.2 °F 15.6 °F 1016.5 in Calm     96 % 0.0 in
06:12 15.9 °F 15.3 °F 1016.8 in Calm     96 % 0.0 in
06:17 15.8 °F 15.2 °F 1016.8 in Calm     96 % 0.0 in
06:22 15.8 °F 15.2 °F 1016.8 in Calm     96 % 0.0 in
06:27 15.9 °F 15.3 °F 1016.8 in Calm     96 % 0.0 in
06:32 16.0 °F 15.4 °F 1016.8 in Calm     96 % 0.0 in
06:37 16.2 °F 15.6 °F 1016.8 in Calm     96 % 0.0 in
06:42 16.5 °F 15.9 °F 1016.8 in Calm     96 % 0.0 in
06:47 16.7 °F 16.1 °F 1016.8 in Calm     96 % 0.0 in
06:52 16.8 °F 16.0 °F 1016.8 in Calm     95 % 0.0 in
06:57 16.8 °F 16.0 °F 1016.8 in Calm     95 % 0.0 in
07:02 16.9 °F 16.1 °F 1016.8 in Calm     95 % 0.0 in
07:07 16.9 °F 16.1 °F 1016.8 in Calm     95 % 0.0 in
07:12 17.2 °F 16.6 °F 1016.8 in Calm     96 % 0.0 in
07:17 17.4 °F 16.8 °F 1017.2 in Calm     96 % 0.0 in
07:22 17.6 °F 16.8 °F 1017.2 in Calm     95 % 0.0 in
07:32 18.1 °F 17.3 °F 1017.2 in Calm     95 % 0.0 in
07:37 18.5 °F 17.5 °F 1017.2 in SW 1.6 mph   94 % 0.0 in
07:42 18.5 °F 17.3 °F 1017.2 in SSW 1.6 mph   93 % 0.0 in
07:47 18.7 °F 17.5 °F 1017.2 in SSW 4.8 mph 4.8 mph 93 % 0.0 in
07:52 18.7 °F 17.4 °F 1017.2 in Calm   4.8 mph 92 % 0.0 in
07:57 18.8 °F 17.5 °F 1017.2 in Calm   6.4 mph 92 % 0.0 in
08:02 19.1 °F 17.8 °F 1017.2 in Calm   6.4 mph 92 % 0.0 in
08:12 19.5 °F 18.0 °F 1017.2 in SW 1.6 mph 6.4 mph 91 % 0.0 in
08:17 19.8 °F 18.1 °F 1017.2 in Calm   4.8 mph 90 % 0.0 in
08:22 20.3 °F 18.4 °F 1017.2 in South 1.6 mph 3.2 mph 89 % 0.0 in
08:27 20.4 °F 18.2 °F 1017.2 in Calm   3.2 mph 87 % 0.0 in
08:32 20.8 °F 18.4 °F 1017.2 in Calm   3.2 mph 86 % 0.0 in
08:42 21.4 °F 18.6 °F 1017.2 in Calm   3.2 mph 84 % 0.0 in
08:47 21.4 °F 18.6 °F 1017.2 in SSW 1.6 mph 3.2 mph 84 % 0.0 in
08:52 21.4 °F 18.8 °F 1017.5 in SW 4.8 mph 4.8 mph 85 % 0.0 in
08:57 21.5 °F 18.9 °F 1017.5 in Calm   3.2 mph 85 % 0.0 in
09:02 21.9 °F 19.3 °F 1017.2 in Calm   4.8 mph 85 % 0.0 in
09:12 22.4 °F 19.4 °F 1017.2 in SSE 1.6 mph 4.8 mph 83 % 0.0 in
09:17 22.6 °F 19.6 °F 1017.5 in SW 3.2 mph 4.8 mph 83 % 0.0 in
09:27 22.6 °F 19.6 °F 1017.5 in SSW 4.8 mph 11.3 mph 83 % 0.0 in
09:32 22.8 °F 19.6 °F 1017.5 in SW 6.4 mph 11.3 mph 82 % 0.0 in
09:37 22.8 °F 19.8 °F 1017.5 in SSW 3.2 mph 11.3 mph 83 % 0.0 in
09:42 22.9 °F 19.9 °F 1017.5 in SW 4.8 mph 11.3 mph 83 % 0.0 in
09:47 23.1 °F 19.9 °F 1017.5 in SSW 4.8 mph 11.3 mph 82 % 0.0 in
09:52 23.2 °F 19.8 °F 1017.8 in SSW 6.4 mph 11.3 mph 81 % 0.0 in
10:02 23.6 °F 20.1 °F 1017.5 in SSW 4.8 mph 11.3 mph 81 % 0.0 in
10:12 24.1 °F 20.6 °F 1017.5 in SW 4.8 mph 12.9 mph 81 % 0.0 in
10:17 24.3 °F 20.4 °F 1017.5 in SW 4.8 mph 11.3 mph 79 % 0.0 in
10:22 24.6 °F 20.5 °F 1017.5 in SSW 11.3 mph 11.3 mph 78 % 0.0 in
10:32 25.0 °F 20.9 °F 1017.5 in SW 3.2 mph 11.3 mph 78 % 0.0 in
10:42 25.3 °F 20.5 °F 1017.5 in SSW 8.0 mph 11.3 mph 75 % 0.0 in
10:47 25.6 °F 20.6 °F 1017.5 in SW 8.0 mph 14.5 mph 74 % 0.0 in
10:52 25.9 °F 20.7 °F 1017.5 in SW 4.8 mph 14.5 mph 73 % 0.0 in
10:57 26.1 °F 20.2 °F 1017.8 in WSW 6.4 mph 14.5 mph 70 % 0.0 in
11:02 26.3 °F 20.4 °F 1017.8 in WSW 6.4 mph 12.9 mph 70 % 0.0 in
11:07 26.6 °F 20.9 °F 1017.8 in SSW 6.4 mph 12.9 mph 71 % 0.0 in
11:12 26.8 °F 20.9 °F 1017.8 in SSW 8.0 mph 12.9 mph 70 % 0.0 in
11:17 27.1 °F 20.7 °F 1017.8 in SSW 8.0 mph 16.1 mph 68 % 0.0 in
11:22 27.2 °F 20.5 °F 1017.8 in SW 11.3 mph 16.1 mph 67 % 0.0 in
11:32 27.2 °F 20.8 °F 1017.8 in WNW 9.7 mph 17.7 mph 68 % 0.0 in
11:37 27.4 °F 20.5 °F 1017.8 in West 6.4 mph 17.7 mph 66 % 0.0 in
11:42 27.6 °F 20.4 °F 1017.8 in WSW 12.9 mph 17.7 mph 65 % 0.0 in
11:52 27.7 °F 20.5 °F 1017.8 in SSW 14.5 mph 16.1 mph 65 % 0.0 in
11:57 27.7 °F 20.5 °F 1017.8 in SW 8.0 mph 16.1 mph 65 % 0.0 in
12:02 27.7 °F 20.3 °F 1017.8 in West 11.3 mph 16.1 mph 64 % 0.0 in
12:12 28.1 °F 20.9 °F 1017.8 in SW 11.3 mph 20.9 mph 65 % 0.0 in
12:17 28.1 °F 20.4 °F 1017.8 in SW 12.9 mph 20.9 mph 63 % 0.0 in
12:22 28.3 °F 20.1 °F 1017.8 in SSW 1.6 mph 17.7 mph 61 % 0.0 in
12:27 28.5 °F 20.0 °F 1017.8 in West 11.3 mph 17.7 mph 60 % 0.0 in
12:32 28.3 °F 19.2 °F 1017.8 in WNW 8.0 mph 17.7 mph 58 % 0.0 in
12:42 28.4 °F 19.3 °F 1017.8 in SW 8.0 mph 17.7 mph 58 % 0.0 in
12:47 28.5 °F 19.4 °F 1017.8 in WNW 11.3 mph 17.7 mph 58 % 0.0 in
12:52 28.7 °F 19.6 °F 1017.8 in WSW 11.3 mph 17.7 mph 58 % 0.0 in
13:02 28.6 °F 19.2 °F 1017.8 in WSW 12.9 mph 20.9 mph 57 % 0.0 in
13:07 28.9 °F 19.2 °F 1017.8 in West 12.9 mph 20.9 mph 56 % 0.0 in
13:12 29.0 °F 19.0 °F 1017.8 in West 14.5 mph 22.5 mph 55 % 0.0 in
13:17 29.0 °F 19.3 °F 1017.8 in West 6.4 mph 22.5 mph 56 % 0.0 in
13:22 29.0 °F 19.0 °F 1017.8 in SSW 14.5 mph 24.1 mph 55 % 0.0 in
13:27 29.0 °F 19.0 °F 1017.8 in SSW 17.7 mph 24.1 mph 55 % 0.0 in
13:32 28.9 °F 19.2 °F 1017.8 in SSW 4.8 mph 24.1 mph 56 % 0.0 in
13:37 29.2 °F 18.9 °F 1017.8 in West 9.7 mph 24.1 mph 54 % 0.0 in
13:42 29.1 °F 18.5 °F 1017.8 in WSW 14.5 mph 25.7 mph 53 % 0.0 in
13:47 29.3 °F 18.7 °F 1017.8 in SSW 4.8 mph 25.7 mph 53 % 0.0 in
13:52 29.5 °F 18.9 °F 1017.8 in West 6.4 mph 25.7 mph 53 % 0.0 in
13:57 29.9 °F 19.0 °F 1017.8 in SW 12.9 mph 25.7 mph 52 % 0.0 in
14:02 29.4 °F 18.2 °F 1017.8 in WSW 17.7 mph 25.7 mph 51 % 0.0 in
14:07 29.4 °F 18.2 °F 1017.8 in West 11.3 mph 27.4 mph 51 % 0.0 in
14:12 29.6 °F 18.4 °F 1017.8 in WSW 12.9 mph 27.4 mph 51 % 0.0 in
14:17 29.7 °F 18.2 °F 1017.8 in West 16.1 mph 27.4 mph 50 % 0.0 in
14:22 29.6 °F 17.8 °F 1017.8 in SW 16.1 mph 30.6 mph 49 % 0.0 in
14:32 29.5 °F 18.0 °F 1017.8 in WNW 12.9 mph 30.6 mph 50 % 0.0 in
14:37 29.7 °F 18.2 °F 1017.8 in SW 19.3 mph 29.0 mph 50 % 0.0 in
14:42 29.6 °F 18.1 °F 1017.8 in WSW 16.1 mph 29.0 mph 50 % 0.0 in
14:47 29.6 °F 18.1 °F 1017.8 in SW 9.7 mph 29.0 mph 50 % 0.0 in
14:52 29.6 °F 17.8 °F 1017.5 in SW 14.5 mph 30.6 mph 49 % 0.0 in
14:57 29.5 °F 18.0 °F 1017.5 in West 17.7 mph 30.6 mph 50 % 0.0 in
15:02 29.5 °F 18.0 °F 1017.5 in West 11.3 mph 30.6 mph 50 % 0.0 in
15:12 29.6 °F 17.8 °F 1017.5 in WNW 9.7 mph 24.1 mph 49 % 0.0 in
15:17 29.7 °F 17.5 °F 1017.5 in WNW 24.1 mph 25.7 mph 48 % 0.0 in
15:22 29.6 °F 18.4 °F 1017.5 in SSW 11.3 mph 25.7 mph 51 % 0.0 in
15:32 29.8 °F 17.6 °F 1017.8 in West 30.6 mph 30.6 mph 48 % 0.0 in
15:37 29.5 °F 17.3 °F 1017.5 in WSW 9.7 mph 30.6 mph 48 % 0.0 in
15:42 29.5 °F 17.0 °F 1017.5 in WNW 16.1 mph 30.6 mph 47 % 0.0 in
15:52 29.7 °F 16.8 °F 1017.5 in WNW 20.9 mph 29.0 mph 46 % 0.0 in
15:57 29.6 °F 16.8 °F 1017.5 in West 16.1 mph 29.0 mph 46 % 0.0 in
16:02 29.7 °F 16.1 °F 1017.5 in West 6.4 mph 27.4 mph 44 % 0.0 in
16:12 29.8 °F 14.4 °F 1017.5 in West 14.5 mph 30.6 mph 39 % 0.0 in
16:17 30.1 °F 13.8 °F 1017.5 in WSW 14.5 mph 29.0 mph 37 % 0.0 in
16:22 30.2 °F 13.9 °F 1017.8 in West 17.7 mph 25.7 mph 37 % 0.0 in
16:32 30.2 °F 12.6 °F 1017.8 in West 8.0 mph 27.4 mph 34 % 0.0 in
16:37 30.1 °F 12.1 °F 1017.8 in West 12.9 mph 27.4 mph 33 % 0.0 in
16:42 30.2 °F 12.6 °F 1017.5 in WNW 17.7 mph 27.4 mph 34 % 0.0 in
16:47 30.2 °F 12.6 °F 1017.5 in West 12.9 mph 22.5 mph 34 % 0.0 in
16:52 30.1 °F 12.5 °F 1017.8 in WSW 14.5 mph 25.7 mph 34 % 0.0 in
16:57 30.0 °F 12.0 °F 1017.8 in West 14.5 mph 25.7 mph 33 % 0.0 in
17:02 29.8 °F 12.7 °F 1017.8 in West 9.7 mph 22.5 mph 35 % 0.0 in
17:07 29.5 °F 12.4 °F 1017.8 in WSW 14.5 mph 22.5 mph 35 % 0.0 in
17:12 29.2 °F 13.0 °F 1017.8 in West 11.3 mph 25.7 mph 37 % 0.0 in
17:17 29.3 °F 13.5 °F 1017.8 in West 11.3 mph 25.7 mph 38 % 0.0 in
17:22 29.3 °F 13.9 °F 1017.8 in WNW 12.9 mph 24.1 mph 39 % 0.0 in
17:27 29.2 °F 13.8 °F 1017.8 in West 20.9 mph 25.7 mph 39 % 0.0 in
17:32 29.4 °F 14.0 °F 1017.8 in WNW 20.9 mph 25.7 mph 39 % 0.0 in
17:37 29.6 °F 14.2 °F 1017.8 in West 12.9 mph 27.4 mph 39 % 0.0 in
17:42 29.7 °F 13.9 °F 1017.8 in WNW 11.3 mph 27.4 mph 38 % 0.0 in
17:47 29.6 °F 14.2 °F 1017.8 in West 9.7 mph 27.4 mph 39 % 0.0 in
17:52 29.6 °F 14.6 °F 1017.8 in West 17.7 mph 25.7 mph 40 % 0.0 in
17:57 29.6 °F 15.3 °F 1017.8 in WNW 14.5 mph 27.4 mph 42 % 0.0 in
18:02 29.6 °F 15.0 °F 1017.8 in West 6.4 mph 27.4 mph 41 % 0.0 in
18:07 29.7 °F 15.4 °F 1017.8 in WNW 8.0 mph 27.4 mph 42 % 0.0 in
18:12 29.7 °F 15.8 °F 1017.8 in West 11.3 mph 25.7 mph 43 % 0.0 in
18:17 29.4 °F 15.9 °F 1017.8 in WNW 19.3 mph 25.7 mph 44 % 0.0 in
18:22 29.4 °F 15.9 °F 1017.8 in WNW 19.3 mph 25.7 mph 44 % 0.0 in
18:27 29.3 °F 16.1 °F 1017.8 in NW 12.9 mph 20.9 mph 45 % 0.0 in
18:32 29.4 °F 16.2 °F 1017.8 in WNW 9.7 mph 27.4 mph 45 % 0.0 in
18:37 29.1 °F 16.3 °F 1017.8 in West 12.9 mph 27.4 mph 46 % 0.0 in
18:42 28.8 °F 16.0 °F 1017.8 in NW 4.8 mph 27.4 mph 46 % 0.0 in
18:52 29.1 °F 15.6 °F 1017.8 in West 6.4 mph 22.5 mph 44 % 0.0 in
19:02 29.2 °F 16.0 °F 1018.2 in WNW 14.5 mph 25.7 mph 45 % 0.0 in
19:07 29.2 °F 16.0 °F 1017.8 in NW 12.9 mph 25.7 mph 45 % 0.0 in
19:12 28.9 °F 15.4 °F 1018.2 in West 17.7 mph 25.7 mph 44 % 0.0 in
19:17 28.8 °F 15.7 °F 1018.2 in WNW 12.9 mph 22.5 mph 45 % 0.0 in
19:22 28.8 °F 16.0 °F 1017.8 in NNW 3.2 mph 22.5 mph 46 % 0.0 in
19:27 29.0 °F 16.2 °F 1017.8 in NW 8.0 mph 22.5 mph 46 % 0.0 in
19:32 28.9 °F 16.1 °F 1017.8 in NW 3.2 mph 17.7 mph 46 % 0.0 in
19:37 28.7 °F 15.6 °F 1018.2 in WNW 8.0 mph 16.1 mph 45 % 0.0 in
19:42 28.4 °F 16.0 °F 1018.2 in WNW 4.8 mph 16.1 mph 47 % 0.0 in
19:47 28.2 °F 15.8 °F 1018.2 in WNW 4.8 mph 17.7 mph 47 % 0.0 in
19:52 27.9 °F 15.5 °F 1018.2 in WNW 11.3 mph 17.7 mph 47 % 0.0 in
19:57 27.7 °F 15.7 °F 1018.2 in WNW 4.8 mph 17.7 mph 48 % 0.0 in
20:02 27.5 °F 15.5 °F 1018.5 in NW 6.4 mph 16.1 mph 48 % 0.0 in
20:07 27.3 °F 15.3 °F 1018.5 in West 9.7 mph 16.1 mph 48 % 0.0 in
20:12 27.1 °F 15.5 °F 1018.5 in West 12.9 mph 17.7 mph 49 % 0.0 in
20:22 26.9 °F 15.6 °F 1018.5 in NW 8.0 mph 17.7 mph 50 % 0.0 in
20:27 26.9 °F 15.6 °F 1018.5 in WNW 8.0 mph 17.7 mph 50 % 0.0 in
20:32 26.9 °F 15.9 °F 1018.5 in West 4.8 mph 12.9 mph 51 % 0.0 in
20:37 26.8 °F 15.8 °F 1018.8 in WNW 1.6 mph 11.3 mph 51 % 0.0 in
20:42 26.6 °F 15.9 °F 1018.8 in NW 1.6 mph 11.3 mph 52 % 0.0 in
20:47 26.3 °F 15.7 °F 1018.8 in NW 1.6 mph 9.7 mph 52 % 0.0 in
20:52 26.2 °F 15.9 °F 1018.8 in West 1.6 mph 9.7 mph 53 % 0.0 in
20:57 26.1 °F 16.1 °F 1018.8 in WNW 1.6 mph 9.7 mph 54 % 0.0 in
21:02 25.8 °F 16.1 °F 1018.8 in WNW 3.2 mph 9.7 mph 55 % 0.0 in
21:12 25.3 °F 15.9 °F 1019.2 in WNW 1.6 mph 8.0 mph 56 % 0.0 in
21:17 25.1 °F 16.0 °F 1019.2 in West 3.2 mph 8.0 mph 57 % 0.0 in
21:22 24.8 °F 15.7 °F 1019.5 in West 3.2 mph 8.0 mph 57 % 0.0 in
21:32 24.4 °F 15.6 °F 1019.5 in WNW 4.8 mph 8.0 mph 58 % 0.0 in
21:37 24.3 °F 15.5 °F 1019.5 in WNW 3.2 mph 8.0 mph 58 % 0.0 in
21:42 24.2 °F 15.4 °F 1019.5 in WNW 4.8 mph 6.4 mph 58 % 0.0 in
21:47 24.1 °F 15.6 °F 1019.9 in WNW 4.8 mph 6.4 mph 59 % 0.0 in
21:52 23.9 °F 15.4 °F 1019.9 in WNW 1.6 mph 6.4 mph 59 % 0.0 in
21:57 23.7 °F 15.5 °F 1019.9 in WNW 4.8 mph 6.4 mph 60 % 0.0 in
22:02 23.6 °F 15.1 °F 1019.9 in WNW 4.8 mph 6.4 mph 59 % 0.0 in
22:12 23.6 °F 15.1 °F 1020.2 in West 3.2 mph 6.4 mph 59 % 0.0 in
22:22 23.4 °F 14.7 °F 1020.2 in WNW 6.4 mph 9.7 mph 58 % 0.0 in
22:27 23.4 °F 14.9 °F 1020.2 in NNW 3.2 mph 12.9 mph 59 % 0.0 in
22:32 23.1 °F 14.9 °F 1020.5 in WNW 1.6 mph 12.9 mph 60 % 0.0 in
22:42 22.5 °F 14.9 °F 1020.5 in North 6.4 mph 9.7 mph 62 % 0.0 in
22:47 22.2 °F 14.8 °F 1020.5 in NNW 6.4 mph 8.0 mph 63 % 0.0 in
22:52 21.9 °F 14.5 °F 1020.9 in NNW 4.8 mph 8.0 mph 63 % 0.0 in
22:57 21.7 °F 14.3 °F 1020.9 in NNW 3.2 mph 11.3 mph 63 % 0.0 in
23:02 21.5 °F 14.2 °F 1020.9 in North 1.6 mph 11.3 mph 63 % 0.0 in
23:07 21.4 °F 13.8 °F 1020.9 in NW 1.6 mph 11.3 mph 62 % 0.0 in
23:12 21.3 °F 13.7 °F 1021.2 in NW 6.4 mph 6.4 mph 62 % 0.0 in
23:17 21.3 °F 13.7 °F 1020.9 in Calm   6.4 mph 62 % 0.0 in
23:22 21.2 °F 13.6 °F 1020.9 in NW 1.6 mph 6.4 mph 62 % 0.0 in
23:32 21.1 °F 13.0 °F 1021.2 in WNW 1.6 mph 6.4 mph 60 % 0.0 in
23:37 21.1 °F 12.8 °F 1021.2 in NW 3.2 mph 6.4 mph 59 % 0.0 in
23:42 21.1 °F 12.5 °F 1021.2 in NNW 1.6 mph 6.4 mph 58 % 0.0 in
23:47 21.1 °F 12.0 °F 1021.2 in NW 4.8 mph 6.4 mph 56 % 0.0 in
23:52 20.9 °F 11.8 °F 1021.2 in NNW 3.2 mph 6.4 mph 56 % 0.0 in
23:57 20.9 °F 11.5 °F 1021.2 in NW 1.6 mph 9.7 mph 55 % 0.0 in
Meteo18
Compliments of Weather Underground - 4 mb

Script developed by  Jim McMurry - jmcmurry@mwt.net Adapted for the template by  Wim van der Kuil - Leuven-Template.eu

You find our weather info also at:

European Weather Network

Weather Underground

Equipment we use:

Weather-station
Davis Vue

Weather-program
Meteobridge

Weather-server
Raspberry PI 2 B+

Provider
1 and 1

Davis Vue

Meteobridge

Raspberry PI 2 B+

1 and 1